createdAt,value
2019-01-15T00:04:59.657Z,47.4
2019-01-15T00:10:07.095Z,47.4
2019-01-15T00:15:09.107Z,47.2
2019-01-15T00:20:11.122Z,47.2
2019-01-15T00:25:13.128Z,47.1
2019-01-15T00:30:15.315Z,47
2019-01-15T00:35:17.329Z,46.9
2019-01-15T00:40:19.359Z,46.9
2019-01-15T00:45:21.412Z,46.7
2019-01-15T00:50:23.492Z,46.7
2019-01-15T00:55:25.541Z,46.6
2019-01-15T01:00:27.587Z,46.5
2019-01-15T01:05:29.636Z,46.4
2019-01-15T01:10:31.692Z,46.4
2019-01-15T01:15:33.703Z,46.2
2019-01-15T01:20:37.105Z,46.2
2019-01-15T01:25:39.176Z,46.1
2019-01-15T01:30:41.179Z,46.1
2019-01-15T01:35:44.349Z,46
2019-01-15T01:40:46.304Z,45.9
2019-01-15T01:45:51.015Z,45.8
2019-01-15T01:50:52.954Z,45.8
2019-01-15T01:55:57.878Z,45.6
2019-01-15T02:00:59.883Z,45.6
2019-01-15T02:06:01.958Z,45.5
2019-01-15T02:11:04.003Z,45.4
2019-01-15T02:16:06.252Z,45.4
2019-01-15T02:21:08.345Z,45.3
2019-01-15T02:26:10.390Z,45.2
2019-01-15T02:31:13.624Z,45.1
2019-01-15T02:36:15.643Z,45.1
2019-01-15T02:41:17.662Z,45
2019-01-15T02:46:19.647Z,44.9
2019-01-15T02:51:21.662Z,44.9
2019-01-15T02:56:23.654Z,44.7
2019-01-15T03:01:25.645Z,44.7
2019-01-15T03:06:27.586Z,44.6
2019-01-15T03:11:29.582Z,44.6
2019-01-15T03:16:31.486Z,44.5
2019-01-15T03:21:33.422Z,44.4
2019-01-15T03:26:35.344Z,44.4
2019-01-15T03:31:37.276Z,44.3
2019-01-15T03:36:39.214Z,44.2
2019-01-15T03:41:41.650Z,44.1
2019-01-15T03:46:46.283Z,44.1
2019-01-15T03:51:49.196Z,44
2019-01-15T03:56:53.864Z,43.9
2019-01-15T04:01:55.778Z,43.9
2019-01-15T04:06:57.746Z,43.8
2019-01-15T04:12:02.762Z,43.7
2019-01-15T04:17:04.740Z,43.7
2019-01-15T04:22:06.657Z,43.6
2019-01-15T04:27:08.620Z,43.6
2019-01-15T04:32:11.635Z,43.5
2019-01-15T04:37:13.613Z,43.4
2019-01-15T04:42:18.541Z,43.4
2019-01-15T04:47:20.436Z,43.3
2019-01-15T04:52:22.357Z,43.3
2019-01-15T04:57:24.275Z,43.2
2019-01-15T05:02:28.899Z,43.1
2019-01-15T05:07:30.793Z,43.1
2019-01-15T05:12:32.707Z,43
2019-01-15T05:17:35.201Z,43
2019-01-15T05:22:37.094Z,42.9
2019-01-15T05:27:38.988Z,42.9
2019-01-15T05:32:41.041Z,42.8
2019-01-15T05:37:43.020Z,42.7
2019-01-15T05:42:44.938Z,42.7
2019-01-15T05:47:46.964Z,42.6
2019-01-15T05:52:49.836Z,42.6
2019-01-15T05:57:51.747Z,42.5
2019-01-15T06:02:53.639Z,42.4
2019-01-15T06:07:55.567Z,42.4
2019-01-15T06:12:57.456Z,42.3
2019-01-15T06:17:59.471Z,42.2
2019-01-15T06:23:01.296Z,42.2
2019-01-15T06:28:03.187Z,42.2
2019-01-15T06:33:05.065Z,42.1
2019-01-15T06:38:06.983Z,42.1
2019-01-15T06:43:13.223Z,42
2019-01-15T06:48:15.115Z,41.9
2019-01-15T06:53:17.659Z,41.9
2019-01-15T06:58:22.440Z,41.8
2019-01-15T07:03:24.283Z,41.7
2019-01-15T07:08:26.139Z,41.7
2019-01-15T07:13:27.923Z,41.7
2019-01-15T07:18:29.795Z,41.6
2019-01-15T07:23:31.583Z,41.6
2019-01-15T07:28:42.552Z,41.5
2019-01-15T07:33:44.911Z,41.4
2019-01-15T07:38:46.832Z,41.4
2019-01-15T07:43:51.560Z,41.4
2019-01-15T07:48:53.357Z,41.3
2019-01-15T07:53:55.175Z,41.2
2019-01-15T07:58:58.074Z,41.2
2019-01-15T08:03:59.937Z,41.2
2019-01-15T08:09:01.769Z,41.1
2019-01-15T08:14:03.579Z,41.1
2019-01-15T08:19:07.492Z,41
2019-01-15T08:24:09.424Z,40.9
2019-01-15T08:29:11.299Z,40.9
2019-01-15T08:34:13.201Z,40.9
2019-01-15T08:39:17.431Z,40.8
2019-01-15T08:44:19.493Z,40.8
2019-01-15T08:49:25.252Z,40.8
2019-01-15T08:54:27.161Z,40.7
2019-01-15T08:59:33.352Z,40.6
2019-01-15T09:04:35.197Z,40.6
2019-01-15T09:09:37.076Z,40.5
2019-01-15T09:14:38.993Z,40.5
2019-01-15T09:19:40.922Z,40.4
2019-01-15T09:24:42.779Z,40.4
2019-01-15T09:29:44.688Z,40.4
2019-01-15T09:34:46.537Z,40.3
2019-01-15T09:39:48.379Z,40.2
2019-01-15T09:44:50.225Z,40.2
2019-01-15T09:49:52.533Z,40.2
2019-01-15T09:54:56.804Z,40.1
2019-01-15T10:00:00.506Z,40.1
2019-01-15T10:05:02.373Z,40
2019-01-15T10:10:04.226Z,40
2019-01-15T10:15:06.095Z,39.9
2019-01-15T10:20:07.915Z,39.9
2019-01-15T10:25:09.720Z,39.9
2019-01-15T10:30:11.498Z,39.8
2019-01-15T10:35:13.270Z,39.7
2019-01-15T10:40:17.784Z,39.7
2019-01-15T10:45:20.749Z,39.7
2019-01-15T10:50:22.576Z,39.6
2019-01-15T10:55:24.352Z,39.6
2019-01-15T11:00:28.829Z,39.6
2019-01-15T11:05:31.733Z,39.5
2019-01-15T11:10:33.555Z,39.5
2019-01-15T11:15:35.375Z,39.4
2019-01-15T11:20:37.425Z,39.4
2019-01-15T11:25:39.209Z,39.3
2019-01-15T11:30:41.058Z,39.3
2019-01-15T11:35:43.965Z,39.2
2019-01-15T11:40:45.721Z,39.2
2019-01-15T11:45:47.589Z,39.2
2019-01-15T11:50:49.395Z,39.1
2019-01-15T11:55:51.182Z,39.1
2019-01-15T12:00:52.983Z,39.1
2019-01-15T12:05:54.800Z,39
2019-01-15T12:10:56.569Z,39
2019-01-15T12:15:58.345Z,38.9
2019-01-15T12:21:04.106Z,38.9
2019-01-15T12:26:05.969Z,38.9
2019-01-15T12:31:08.218Z,38.8
2019-01-15T12:36:10.019Z,38.8
2019-01-15T12:41:11.834Z,38.7
2019-01-15T12:46:13.669Z,38.7
2019-01-15T12:51:15.465Z,38.6
2019-01-15T12:56:17.439Z,38.6
2019-01-15T13:01:19.255Z,38.6
2019-01-15T13:06:22.147Z,38.6
2019-01-15T13:11:23.956Z,38.5
2019-01-15T13:16:26.796Z,38.4
2019-01-15T13:21:28.563Z,38.4
2019-01-15T13:26:30.343Z,38.4
2019-01-15T13:31:32.122Z,38.4
2019-01-15T13:36:34.508Z,38.3
2019-01-15T13:41:36.357Z,38.3
2019-01-15T13:46:38.150Z,38.2
2019-01-15T13:51:40.610Z,38.2
2019-01-15T13:56:42.420Z,38.2
2019-01-15T14:01:44.216Z,38.1
2019-01-15T14:06:45.988Z,38.1
2019-01-15T14:11:48.808Z,38.1
2019-01-15T14:16:50.579Z,38
2019-01-15T14:21:52.335Z,38
2019-01-15T14:26:54.099Z,37.9
2019-01-15T14:31:55.795Z,37.9
2019-01-15T14:36:57.517Z,37.9
2019-01-15T14:41:59.204Z,37.9
2019-01-15T14:47:00.916Z,37.8
2019-01-15T14:52:05.732Z,37.7
2019-01-15T14:57:07.433Z,37.7
2019-01-15T15:02:09.121Z,37.7
2019-01-15T15:07:10.867Z,37.7
2019-01-15T15:12:12.595Z,37.7
2019-01-15T15:17:14.311Z,37.6
2019-01-15T15:22:16.063Z,37.6
2019-01-15T15:27:18.895Z,37.6
2019-01-15T15:32:20.804Z,37.5
2019-01-15T15:37:23.122Z,37.5
2019-01-15T15:42:25.037Z,37.4
2019-01-15T15:47:26.785Z,37.4
2019-01-15T15:52:28.524Z,37.4
2019-01-15T15:57:30.302Z,37.4
2019-01-15T16:02:32.048Z,37.3
2019-01-15T16:07:33.791Z,37.2
2019-01-15T16:12:35.529Z,37.2
2019-01-15T16:17:38.397Z,37.2
2019-01-15T16:22:40.132Z,37.2
2019-01-15T16:27:41.832Z,37.2
2019-01-15T16:32:43.532Z,37.1
2019-01-15T16:37:46.619Z,37.1
2019-01-15T16:42:48.334Z,37.1
2019-01-15T16:47:50.044Z,37
2019-01-15T16:52:51.915Z,36.9
2019-01-15T16:57:54.760Z,36.8
2019-01-15T17:02:56.554Z,36.8
2019-01-15T17:07:58.366Z,36.7
2019-01-15T17:13:00.165Z,36.7
2019-01-15T17:18:01.912Z,36.7
2019-01-15T17:23:03.665Z,36.6
2019-01-15T17:28:05.480Z,39
2019-01-15T17:33:07.357Z,41.4
2019-01-15T17:38:09.318Z,43.6
2019-01-15T17:43:11.284Z,45.3
2019-01-15T17:48:13.335Z,46.7
2019-01-15T17:53:15.361Z,47.9
2019-01-15T17:58:20.430Z,49
2019-01-15T18:03:22.551Z,49.9
2019-01-15T18:08:23.166Z,50.6
2019-01-15T18:13:23.762Z,51.4
2019-01-15T18:18:24.622Z,51.9
2019-01-15T18:23:25.343Z,52.5
2019-01-15T18:28:27.186Z,52.9
2019-01-15T18:33:27.857Z,53.3
2019-01-15T18:38:28.524Z,53.5
2019-01-15T18:43:29.164Z,53.7
2019-01-15T18:48:29.923Z,53.7
2019-01-15T18:53:31.098Z,53.9
2019-01-15T18:58:31.931Z,53.9
2019-01-15T19:03:32.522Z,53.9
2019-01-15T19:08:33.180Z,53.9
2019-01-15T19:13:33.755Z,54
2019-01-15T19:18:34.305Z,54
2019-01-15T19:23:34.885Z,54
2019-01-15T19:28:35.439Z,54.5
2019-01-15T19:33:37.115Z,54.8
2019-01-15T19:38:37.803Z,55
2019-01-15T19:43:38.501Z,55.2
2019-01-15T19:48:39.208Z,55.2
2019-01-15T19:53:39.857Z,55.4
2019-01-15T19:58:40.571Z,55.6
2019-01-15T20:03:41.268Z,55.1
2019-01-15T20:08:41.963Z,55
2019-01-15T20:13:42.574Z,54.9
2019-01-15T20:18:43.219Z,54.8
2019-01-15T20:23:43.859Z,54.7
2019-01-15T20:28:44.546Z,54.7
2019-01-15T20:33:45.279Z,54.6
2019-01-15T20:38:45.938Z,54.5
2019-01-15T20:43:46.709Z,54.4
2019-01-15T20:48:47.397Z,54.4
2019-01-15T20:53:48.134Z,54.2
2019-01-15T20:58:48.778Z,54.2
2019-01-15T21:03:49.442Z,54.1
2019-01-15T21:08:50.055Z,54
2019-01-15T21:13:50.774Z,53.9
2019-01-15T21:18:51.429Z,53.8
2019-01-15T21:23:52.043Z,53.7
2019-01-15T21:28:52.653Z,53.6
2019-01-15T21:33:53.308Z,53.6
2019-01-15T21:38:53.995Z,53.4
2019-01-15T21:43:54.609Z,53.4
2019-01-15T21:48:55.202Z,53.3
2019-01-15T21:53:55.787Z,53.2
2019-01-15T21:58:56.403Z,53.1
2019-01-15T22:03:56.950Z,53
2019-01-15T22:08:57.581Z,52.9
2019-01-15T22:14:08.508Z,52.7
2019-01-15T22:19:09.111Z,52.7
2019-01-15T22:24:10.359Z,52.6
2019-01-15T22:29:10.979Z,52.4
2019-01-15T22:34:11.522Z,52.4
2019-01-15T22:39:12.384Z,52.2
2019-01-15T22:44:15.758Z,52.2
2019-01-15T22:49:16.361Z,52.1
2019-01-15T22:54:17.230Z,51.9
2019-01-15T22:59:17.952Z,51.9
2019-01-15T23:04:18.506Z,51.7
2019-01-15T23:09:19.037Z,51.7
2019-01-15T23:14:19.591Z,51.6
2019-01-15T23:19:20.151Z,51.4
2019-01-15T23:24:20.688Z,51.4
2019-01-15T23:29:21.214Z,51.2
2019-01-15T23:34:21.737Z,51.2
2019-01-15T23:39:22.258Z,51.1
2019-01-15T23:44:22.796Z,50.9
2019-01-15T23:49:23.388Z,50.9
2019-01-15T23:54:23.963Z,50.8
2019-01-15T23:59:24.731Z,50.7
